Zanjan, Iran
Current Conditions -  °F | °C
As of 5:00 PM on Saturday 22 Nov 2014 (Local Time) from OITZ Reporting Station
Scattered Clouds Scattered Clouds  
Wind Chill: 52°   Ceiling: Unl
Heat Index: 52°   Visibility: 6mi
Dew Point: 45°   Wind: 7mph
Humidity: 76%   Direction: 210°SSW
Pressure: 29.83"   Gusts: NA
Location:  36.67°N, 48.5°E
Report Text: OITZ 221400Z 21006KT 9999 SCT030 FEW030CB 11/07 Q1010
Loading
Personal Weather Stations






























Interactive Weather Map New forecast layout! Learn more

10-Day Weather Forecast

Advertisements
Track Severe Weather on mobile